Time;durP1;ratioP1;P1;durP2;ratioP2;P2;SDS_P1;SDS_P2;PMS_P1;PMS_P2;Temp;Humidity;BMP_temperature;BMP_pressure;BME280_temperature;BME280_humidity;BME280_pressure;Samples;Min_cycle;Max_cycle;Signal;HPM_P1;HPM_P2
2022/02/18 00:01:16;;;;;;;18.40;9.80;;;9.30;76.40;;;;;;4962040;28;20051;-91
2022/02/18 00:03:44;;;;;;;13.52;7.35;;;9.20;76.90;;;;;;4956986;28;20035;-91
2022/02/18 00:06:11;;;;;;;23.95;5.90;;;9.20;76.70;;;;;;4954598;29;20149;-93
2022/02/18 00:08:37;;;;;;;16.67;6.45;;;9.20;76.40;;;;;;4955005;29;20047;-92
2022/02/18 00:11:06;;;;;;;21.27;6.90;;;9.30;76.40;;;;;;4955448;28;20369;-92
2022/02/18 00:13:34;;;;;;;14.60;6.60;;;9.30;76.20;;;;;;4956417;29;20461;-92
2022/02/18 00:16:00;;;;;;;11.20;5.88;;;9.30;76.10;;;;;;4954717;28;20035;-91
2022/02/18 00:18:26;;;;;;;11.70;5.95;;;9.30;76.20;;;;;;4955963;28;20047;-92
2022/02/18 00:20:53;;;;;;;13.90;5.85;;;9.30;75.80;;;;;;4954028;29;20040;-92
2022/02/18 00:23:19;;;;;;;16.40;6.43;;;9.30;76.10;;;;;;4956671;29;20035;-91
2022/02/18 00:25:45;;;;;;;16.85;6.88;;;9.30;76.30;;;;;;4955578;28;20453;-90
2022/02/18 00:28:11;;;;;;;8.10;5.25;;;9.20;76.30;;;;;;4955820;29;20036;-92
2022/02/18 00:30:37;;;;;;;8.50;4.60;;;9.20;76.50;;;;;;4956242;28;20042;-92
2022/02/18 00:33:03;;;;;;;16.40;6.10;;;9.20;76.40;;;;;;4957265;28;20039;-92
2022/02/18 00:35:30;;;;;;;14.40;5.60;;;9.20;76.50;;;;;;4964693;28;20031;-92
2022/02/18 00:37:56;;;;;;;20.52;6.55;;;9.30;76.00;;;;;;4954859;28;20054;-92
2022/02/18 00:40:25;;;;;;;29.92;6.28;;;9.30;76.00;;;;;;4955451;29;20050;-92
2022/02/18 00:42:51;;;;;;;13.40;6.50;;;9.40;75.70;;;;;;4955045;29;20028;-92
2022/02/18 00:45:17;;;;;;;23.63;5.70;;;9.40;76.00;;;;;;4955138;28;20054;-92
2022/02/18 00:47:44;;;;;;;18.20;6.20;;;9.40;75.70;;;;;;4961753;29;20035;-92
2022/02/18 00:50:10;;;;;;;15.45;5.10;;;9.30;75.90;;;;;;4970061;28;20043;-92
2022/02/18 00:52:36;;;;;;;11.35;5.55;;;9.30;75.90;;;;;;4959380;28;20038;-93
2022/02/18 00:55:03;;;;;;;19.42;6.88;;;9.30;76.30;;;;;;4958920;29;20376;-92
2022/02/18 00:57:34;;;;;;;15.48;6.18;;;9.20;76.40;;;;;;4958718;29;20027;-91
2022/02/18 01:00:01;;;;;;;13.88;5.78;;;9.20;76.10;;;;;;4956941;28;20047;-92
2022/02/18 01:02:29;;;;;;;16.27;6.00;;;9.30;75.90;;;;;;4965694;28;20039;-94
2022/02/18 01:04:55;;;;;;;18.38;5.72;;;9.30;75.80;;;;;;4958754;28;20043;-91
2022/02/18 01:07:23;;;;;;;12.38;5.00;;;9.30;76.10;;;;;;4958953;29;20046;-92
2022/02/18 01:09:50;;;;;;;14.45;4.93;;;9.20;76.00;;;;;;4957922;29;20046;-84
2022/02/18 01:12:16;;;;;;;11.15;5.65;;;9.30;75.90;;;;;;4958933;29;20039;-92
2022/02/18 01:14:42;;;;;;;16.90;4.40;;;9.30;75.90;;;;;;4957322;29;20040;-92
2022/02/18 01:17:08;;;;;;;18.35;6.10;;;9.30;75.70;;;;;;4956935;28;20054;-90
2022/02/18 01:19:34;;;;;;;17.42;5.95;;;9.40;75.70;;;;;;4958350;29;20038;-93
2022/02/18 01:22:03;;;;;;;18.20;6.18;;;9.30;75.60;;;;;;4956198;29;20051;-93
2022/02/18 01:24:29;;;;;;;22.33;6.35;;;9.30;76.00;;;;;;4958384;28;20046;-91
2022/02/18 01:26:56;;;;;;;16.63;5.35;;;9.40;76.00;;;;;;4958265;29;20060;-92
2022/02/18 01:29:22;;;;;;;14.10;4.85;;;9.40;75.60;;;;;;4959529;29;20035;-92
2022/02/18 01:31:48;;;;;;;9.25;4.50;;;9.40;75.50;;;;;;4968482;28;20062;-90
2022/02/18 01:34:14;;;;;;;15.10;5.35;;;9.50;75.50;;;;;;4963982;29;20051;-89
2022/02/18 01:36:41;;;;;;;11.13;5.57;;;9.50;75.30;;;;;;4974923;28;20039;-92
2022/02/18 01:39:10;;;;;;;25.00;5.22;;;9.50;75.50;;;;;;4976858;28;20039;-92
2022/02/18 01:41:37;;;;;;;22.52;5.90;;;9.50;75.20;;;;;;4970912;29;20078;-93
2022/02/18 01:44:05;;;;;;;19.95;5.70;;;9.50;75.60;;;;;;4958557;29;20050;-92
2022/02/18 01:46:32;;;;;;;15.15;5.10;;;9.50;75.80;;;;;;4958409;29;20039;-93
2022/02/18 01:49:00;;;;;;;15.60;5.85;;;9.40;75.60;;;;;;4956474;29;20058;-90
2022/02/18 01:51:28;;;;;;;18.88;5.28;;;9.50;75.50;;;;;;4957085;29;20039;-92
2022/02/18 01:53:55;;;;;;;17.52;4.53;;;9.40;75.90;;;;;;4958311;29;20035;-92
2022/02/18 01:56:22;;;;;;;19.83;5.13;;;9.40;76.10;;;;;;4959315;29;20058;-93
2022/02/18 01:58:49;;;;;;;9.57;4.68;;;9.30;76.20;;;;;;4980996;23;20074;-92
2022/02/18 02:01:16;;;;;;;22.38;5.72;;;9.20;76.30;;;;;;4939260;29;20055;-94
2022/02/18 02:03:42;;;;;;;18.58;5.28;;;9.20;76.10;;;;;;4938111;29;20054;-93
2022/02/18 02:06:11;;;;;;;11.88;5.28;;;9.20;76.30;;;;;;4937382;29;20044;-93
2022/02/18 02:08:37;;;;;;;15.10;4.60;;;9.20;76.50;;;;;;4941110;29;20032;-91
2022/02/18 02:11:04;;;;;;;20.48;5.00;;;9.20;76.50;;;;;;4977667;28;20397;-90
2022/02/18 02:13:33;;;;;;;19.88;5.53;;;9.20;76.70;;;;;;4939036;29;20048;-92
2022/02/18 02:16:03;;;;;;;11.45;4.88;;;9.30;76.40;;;;;;4951686;29;20445;-91
2022/02/18 02:18:30;;;;;;;18.35;5.65;;;9.30;76.10;;;;;;4938494;29;20031;-92
2022/02/18 02:20:57;;;;;;;19.98;5.75;;;9.20;76.40;;;;;;4936516;29;20117;-91
2022/02/18 02:23:29;;;;;;;21.27;5.28;;;9.20;76.60;;;;;;4969009;28;20051;-92
2022/02/18 02:25:56;;;;;;;17.85;5.47;;;9.10;76.60;;;;;;4938432;29;20040;-91
2022/02/18 02:28:27;;;;;;;16.10;4.65;;;9.10;76.80;;;;;;4970159;28;20048;-92
2022/02/18 02:30:54;;;;;;;18.17;4.95;;;9.10;76.80;;;;;;4982973;28;20058;-84
2022/02/18 02:33:20;;;;;;;17.52;5.75;;;9.00;76.90;;;;;;4942478;29;20039;-92
2022/02/18 02:35:48;;;;;;;18.35;5.80;;;9.00;77.00;;;;;;4971299;28;20477;-93
2022/02/18 02:38:16;;;;;;;14.35;4.93;;;9.10;77.10;;;;;;4976286;28;20051;-92
2022/02/18 02:40:44;;;;;;;12.98;4.82;;;9.00;77.30;;;;;;4940137;29;20501;-92
2022/02/18 02:43:10;;;;;;;21.27;6.10;;;9.00;77.20;;;;;;4939209;29;20039;-92
2022/02/18 02:45:37;;;;;;;12.95;5.03;;;9.00;77.40;;;;;;4968976;28;20394;-92
2022/02/18 02:48:05;;;;;;;12.90;5.03;;;9.00;77.70;;;;;;4936029;29;20050;-92
2022/02/18 02:50:50;;;;;;;19.73;5.30;;;8.90;77.50;;;;;;4938046;29;20118;-92
2022/02/18 02:53:18;;;;;;;11.98;4.65;;;8.90;77.80;;;;;;4951288;29;20047;-93
2022/02/18 02:55:44;;;;;;;15.27;4.82;;;8.90;78.10;;;;;;4967430;28;20396;-93
2022/02/18 02:58:12;;;;;;;14.05;4.70;;;8.90;77.70;;;;;;4935026;29;20092;-92
2022/02/18 03:00:38;;;;;;;14.45;4.53;;;9.00;77.40;;;;;;4968385;28;20055;-93
2022/02/18 03:03:05;;;;;;;18.67;5.47;;;9.00;77.50;;;;;;4935442;29;20048;-92
2022/02/18 03:05:37;;;;;;;15.07;5.05;;;9.00;77.60;;;;;;4967444;28;20047;-91
2022/02/18 03:08:05;;;;;;;14.27;6.07;;;9.00;77.50;;;;;;4936158;29;20039;-93
2022/02/18 03:10:35;;;;;;;13.25;4.45;;;9.00;77.50;;;;;;4967667;28;20043;-93
2022/02/18 03:13:04;;;;;;;9.70;4.80;;;9.00;77.40;;;;;;4934429;29;20050;-93
2022/02/18 03:15:31;;;;;;;12.57;5.45;;;9.00;77.20;;;;;;4935572;29;20047;-90
2022/02/18 03:17:59;;;;;;;18.05;5.35;;;9.00;77.70;;;;;;4936574;29;20055;-91
2022/02/18 03:20:29;;;;;;;12.23;5.18;;;9.00;77.50;;;;;;4978429;28;20039;-92
2022/02/18 03:22:56;;;;;;;9.52;5.03;;;9.00;77.20;;;;;;4949067;28;20023;-92
2022/02/18 03:25:22;;;;;;;14.15;5.28;;;9.10;77.20;;;;;;4949723;29;20042;-91
2022/02/18 03:27:49;;;;;;;18.55;6.38;;;9.00;77.20;;;;;;4983322;28;20047;-90
2022/02/18 03:30:20;;;;;;;13.50;5.70;;;9.10;77.30;;;;;;4953447;29;20036;-91
2022/02/18 03:32:47;;;;;;;25.30;6.53;;;9.00;77.40;;;;;;4969756;28;20398;-91
2022/02/18 03:35:22;;;;;;;15.70;6.68;;;8.90;77.50;;;;;;4938281;29;20040;-91
2022/02/18 03:37:48;;;;;;;18.55;6.28;;;8.90;77.60;;;;;;4967211;28;20394;-92
2022/02/18 03:40:23;;;;;;;12.27;6.10;;;8.90;77.80;;;;;;4952182;28;20051;-92
2022/02/18 03:42:50;;;;;;;11.10;4.63;;;8.80;77.90;;;;;;4935711;29;20397;-91
2022/02/18 03:45:16;;;;;;;13.30;6.22;;;8.90;77.40;;;;;;4934588;29;20040;-92
2022/02/18 03:47:43;;;;;;;18.02;5.18;;;9.00;77.10;;;;;;4934749;29;20059;-94
2022/02/18 03:50:13;;;;;;;13.10;5.30;;;9.00;77.00;;;;;;4934796;29;20044;-93
2022/02/18 03:52:39;;;;;;;13.55;5.05;;;8.90;77.70;;;;;;4936974;29;20039;-93
2022/02/18 03:55:06;;;;;;;14.18;4.88;;;8.80;78.20;;;;;;4975819;28;20044;-84
2022/02/18 03:57:34;;;;;;;18.70;4.97;;;8.70;78.60;;;;;;4952728;28;20048;-93
2022/02/18 04:00:07;;;;;;;9.52;4.60;;;8.60;78.90;;;;;;4948258;29;20036;-93
2022/02/18 04:02:34;;;;;;;17.00;6.05;;;8.60;79.30;;;;;;4943261;29;20048;-92
2022/02/18 04:05:03;;;;;;;12.93;5.00;;;8.50;79.60;;;;;;4935741;29;20043;-93
2022/02/18 04:07:48;;;;;;;14.10;5.35;;;8.50;79.90;;;;;;4953918;28;20044;-94
2022/02/18 04:10:14;;;;;;;12.70;5.45;;;8.40;80.10;;;;;;4935155;29;20051;-93
2022/02/18 04:12:41;;;;;;;14.52;5.32;;;8.40;80.50;;;;;;4950089;29;20050;-92
2022/02/18 04:15:17;;;;;;;12.23;4.63;;;8.40;80.60;;;;;;5014644;23;20051;-93
2022/02/18 04:17:44;;;;;;;17.15;5.30;;;8.30;80.70;;;;;;4954493;29;20058;-93
2022/02/18 04:20:23;;;;;;;11.80;4.75;;;8.40;80.50;;;;;;4953958;29;20047;-92
2022/02/18 04:22:56;;;;;;;11.45;5.10;;;8.40;80.50;;;;;;4954899;29;20054;-94
2022/02/18 04:25:28;;;;;;;15.32;5.50;;;8.40;80.50;;;;;;4956297;28;20051;-93
2022/02/18 04:27:56;;;;;;;8.77;4.63;;;8.30;80.60;;;;;;4974323;28;20066;-93
2022/02/18 04:30:23;;;;;;;13.02;5.28;;;8.30;80.70;;;;;;4957405;29;20058;-93
2022/02/18 04:32:50;;;;;;;10.10;5.43;;;8.30;80.90;;;;;;4959470;29;20027;-94
2022/02/18 04:35:17;;;;;;;18.50;5.60;;;8.20;81.00;;;;;;4959109;29;20461;-94
2022/02/18 04:37:45;;;;;;;15.90;4.70;;;8.30;81.00;;;;;;4959675;29;20039;-94
2022/02/18 04:40:13;;;;;;;9.93;4.88;;;8.20;81.10;;;;;;4958709;29;20046;-94
2022/02/18 04:42:39;;;;;;;18.00;5.43;;;8.20;81.20;;;;;;4957847;29;20043;-95
2022/02/18 04:45:06;;;;;;;12.43;4.97;;;8.20;81.20;;;;;;4958421;29;20462;-93
2022/02/18 04:47:33;;;;;;;14.45;4.93;;;8.20;81.30;;;;;;4959662;29;20039;-93
2022/02/18 04:50:06;;;;;;;10.73;5.50;;;8.20;81.70;;;;;;4958732;29;20039;-82
2022/02/18 04:52:35;;;;;;;16.25;5.47;;;8.10;81.80;;;;;;4959117;29;20031;-93
2022/02/18 04:55:02;;;;;;;13.35;5.13;;;8.10;81.90;;;;;;4958853;29;20027;-93
2022/02/18 04:57:30;;;;;;;14.55;5.45;;;8.20;81.60;;;;;;4958970;29;20039;-93
2022/02/18 04:59:56;;;;;;;8.70;4.28;;;8.20;81.80;;;;;;4958895;29;20039;-92
2022/02/18 05:02:23;;;;;;;16.33;4.60;;;8.30;81.40;;;;;;4966450;29;20222;-93
2022/02/18 05:04:49;;;;;;;11.90;4.65;;;8.30;81.00;;;;;;4979660;29;20023;-91
2022/02/18 05:07:15;;;;;;;15.00;5.60;;;8.30;81.10;;;;;;4961508;29;20488;-92
2022/02/18 05:09:44;;;;;;;20.33;6.13;;;8.30;80.70;;;;;;4959449;29;20035;-91
2022/02/18 05:12:10;;;;;;;14.75;4.60;;;8.40;80.50;;;;;;4959313;29;20035;-94
2022/02/18 05:14:36;;;;;;;12.02;4.68;;;8.50;80.30;;;;;;4960593;29;20065;-93
2022/02/18 05:17:04;;;;;;;11.52;5.00;;;8.50;80.50;;;;;;4972410;29;20051;-79
2022/02/18 05:19:30;;;;;;;18.27;4.50;;;8.40;80.50;;;;;;4966741;29;20043;-94
2022/02/18 05:21:56;;;;;;;9.65;4.93;;;8.40;80.60;;;;;;4960135;29;20030;-92
2022/02/18 05:24:22;;;;;;;15.90;5.63;;;8.40;80.80;;;;;;4958407;29;20023;-93
2022/02/18 05:26:49;;;;;;;13.45;4.82;;;8.40;80.70;;;;;;4957867;29;20039;-81
2022/02/18 05:29:15;;;;;;;17.13;4.97;;;8.40;80.70;;;;;;4954145;29;20043;-80
2022/02/18 05:31:41;;;;;;;17.52;4.90;;;8.40;80.20;;;;;;4956433;28;20038;-81
2022/02/18 05:34:11;;;;;;;13.80;4.50;;;8.50;80.30;;;;;;4955819;29;20031;-80
2022/02/18 05:36:38;;;;;;;9.90;4.38;;;8.50;80.00;;;;;;4953885;28;20058;-80
2022/02/18 05:39:04;;;;;;;24.40;4.63;;;8.50;79.90;;;;;;4956536;29;20043;-80
2022/02/18 05:41:31;;;;;;;17.20;3.65;;;8.50;79.70;;;;;;4956487;29;20039;-80
2022/02/18 05:43:57;;;;;;;11.68;4.05;;;8.50;79.50;;;;;;4956357;28;20032;-79
2022/02/18 05:46:23;;;;;;;16.77;5.13;;;8.60;79.10;;;;;;4955395;28;20062;-80
2022/02/18 05:48:49;;;;;;;16.05;5.03;;;8.60;78.80;;;;;;4955620;28;20051;-79
2022/02/18 05:51:15;;;;;;;6.50;3.53;;;8.70;78.20;;;;;;4954191;28;20486;-79
2022/02/18 05:53:43;;;;;;;8.15;3.92;;;8.80;78.40;;;;;;4956198;29;20027;-80
2022/02/18 05:56:10;;;;;;;11.38;5.20;;;8.80;79.60;;;;;;4957587;29;20062;-81
2022/02/18 05:58:36;;;;;;;7.00;4.05;;;8.80;80.50;;;;;;4955820;29;20039;-78
2022/02/18 06:01:02;;;;;;;8.80;4.40;;;8.80;79.90;;;;;;4955537;29;20038;-80
2022/02/18 06:03:28;;;;;;;10.10;4.82;;;8.90;78.90;;;;;;4955045;28;20453;-81
2022/02/18 06:05:54;;;;;;;10.93;4.38;;;8.90;79.80;;;;;;4955772;29;20042;-81
2022/02/18 06:08:21;;;;;;;17.73;5.97;;;8.90;79.50;;;;;;4955253;29;20043;-79
2022/02/18 06:10:47;;;;;;;19.92;5.72;;;8.90;79.00;;;;;;4955774;28;20482;-79
2022/02/18 06:13:13;;;;;;;14.10;7.35;;;8.90;78.70;;;;;;4954854;29;20039;-80
2022/02/18 06:15:39;;;;;;;15.45;10.95;;;8.90;78.90;;;;;;4956033;28;20062;-81
2022/02/18 06:18:05;;;;;;;37.28;26.27;;;8.90;79.00;;;;;;4955383;29;20038;-80
2022/02/18 06:20:32;;;;;;;58.33;35.55;;;8.90;78.80;;;;;;4954979;29;20054;-81
2022/02/18 06:22:58;;;;;;;28.15;16.35;;;8.90;78.80;;;;;;4955596;28;20023;-80
2022/02/18 06:25:24;;;;;;;29.02;16.02;;;9.00;78.70;;;;;;4954887;28;20035;-78
2022/02/18 06:27:50;;;;;;;24.40;17.02;;;9.00;79.00;;;;;;4955259;28;20043;-79
2022/02/18 06:30:19;;;;;;;15.77;7.65;;;8.90;79.00;;;;;;4953297;28;20047;-79
2022/02/18 06:32:46;;;;;;;49.40;28.50;;;8.90;78.70;;;;;;4954035;29;20370;-80
2022/02/18 06:35:12;;;;;;;81.93;47.05;;;8.90;79.00;;;;;;4954760;29;20031;-78
2022/02/18 06:37:38;;;;;;;27.23;14.60;;;8.90;79.40;;;;;;4955103;29;20382;-79
2022/02/18 06:40:05;;;;;;;28.95;17.13;;;8.90;79.00;;;;;;4955046;28;20035;-79
2022/02/18 06:42:31;;;;;;;9.38;6.50;;;9.00;79.00;;;;;;4953246;29;20042;-78
2022/02/18 06:44:58;;;;;;;57.60;33.50;;;9.00;78.90;;;;;;4954924;29;20036;-79
2022/02/18 06:47:24;;;;;;;34.90;23.60;;;9.00;79.60;;;;;;4954751;28;20046;-79
2022/02/18 06:49:50;;;;;;;24.92;15.55;;;9.00;78.90;;;;;;4954283;28;20039;-80
2022/02/18 06:52:16;;;;;;;14.93;7.55;;;9.00;79.00;;;;;;4954342;29;20135;-80
2022/02/18 06:54:42;;;;;;;43.58;30.83;;;9.00;79.10;;;;;;4955193;29;20054;-77
2022/02/18 06:57:11;;;;;;;25.35;17.10;;;9.10;79.10;;;;;;4953735;29;20039;-79
2022/02/18 06:59:37;;;;;;;31.98;14.60;;;9.10;79.20;;;;;;4953756;28;20038;-79
2022/02/18 07:02:03;;;;;;;58.08;39.95;;;9.10;79.30;;;;;;4954215;29;20039;-79
2022/02/18 07:04:30;;;;;;;23.70;10.40;;;9.10;78.90;;;;;;4954547;29;20460;-79
2022/02/18 07:06:56;;;;;;;8.05;4.97;;;9.10;79.10;;;;;;4955078;29;20032;-79
2022/02/18 07:09:22;;;;;;;14.40;8.80;;;9.10;79.20;;;;;;4953693;29;20460;-79
2022/02/18 07:11:48;;;;;;;15.00;6.25;;;9.10;79.40;;;;;;4953917;29;20362;-80
2022/02/18 07:14:15;;;;;;;23.67;9.70;;;9.10;79.70;;;;;;4953712;29;20039;-81
2022/02/18 07:16:42;;;;;;;17.80;10.77;;;9.00;80.10;;;;;;4953285;29;20043;-81
2022/02/18 07:19:10;;;;;;;9.55;4.63;;;9.10;80.60;;;;;;4954481;28;20388;-79
2022/02/18 07:21:37;;;;;;;14.98;9.60;;;9.10;80.90;;;;;;4954983;29;20031;-81
2022/02/18 07:24:06;;;;;;;29.95;15.82;;;9.20;81.00;;;;;;4954979;28;20046;-79
2022/02/18 07:26:32;;;;;;;14.82;6.53;;;9.20;81.30;;;;;;4953932;28;20043;-81
2022/02/18 07:28:58;;;;;;;21.70;8.05;;;9.20;81.50;;;;;;4954460;28;20397;-81
2022/02/18 07:31:25;;;;;;;20.08;12.50;;;9.20;81.70;;;;;;4953447;28;20076;-80
2022/02/18 07:33:51;;;;;;;18.75;8.10;;;9.20;82.00;;;;;;4954596;28;20031;-81
2022/02/18 07:36:18;;;;;;;15.18;10.77;;;9.20;83.20;;;;;;4952694;28;20035;-81
2022/02/18 07:38:44;;;;;;;22.52;4.90;;;9.30;83.80;;;;;;4956546;29;20039;-79
2022/02/18 07:41:10;;;;;;;8.75;4.53;;;9.30;84.50;;;;;;4953553;28;20043;-80
2022/02/18 07:43:36;;;;;;;17.42;7.43;;;9.30;85.30;;;;;;4956920;28;20042;-80
2022/02/18 07:46:03;;;;;;;11.95;8.52;;;9.20;86.50;;;;;;4959578;29;20035;-80
2022/02/18 07:48:29;;;;;;;10.70;5.63;;;9.30;87.50;;;;;;4958671;29;20484;-80
2022/02/18 07:50:56;;;;;;;17.73;12.88;;;9.20;88.10;;;;;;4956130;28;20047;-80
2022/02/18 07:53:23;;;;;;;17.45;10.68;;;9.20;88.80;;;;;;4954265;29;20031;-81
2022/02/18 07:55:49;;;;;;;13.25;7.15;;;9.20;90.10;;;;;;4954541;29;20027;-79
2022/02/18 07:58:16;;;;;;;12.95;7.40;;;9.30;90.40;;;;;;4953618;29;20046;-81
2022/02/18 08:00:42;;;;;;;12.70;6.78;;;9.30;90.70;;;;;;4956865;28;20496;-80
2022/02/18 08:03:09;;;;;;;12.48;6.85;;;9.30;91.20;;;;;;4958107;28;20034;-80
2022/02/18 08:05:36;;;;;;;30.92;14.57;;;9.30;91.60;;;;;;4957429;28;20034;-80
2022/02/18 08:08:02;;;;;;;14.60;6.95;;;9.30;92.20;;;;;;4958139;29;20384;-79
2022/02/18 08:10:28;;;;;;;16.70;6.05;;;9.30;92.70;;;;;;4957337;29;20034;-81
2022/02/18 08:12:55;;;;;;;14.23;6.30;;;9.30;93.10;;;;;;4956217;29;20477;-79
2022/02/18 08:15:21;;;;;;;14.23;7.03;;;9.30;93.90;;;;;;4957332;29;20412;-79
2022/02/18 08:17:47;;;;;;;10.75;5.78;;;9.30;94.70;;;;;;4957967;28;20046;-80
2022/02/18 08:20:14;;;;;;;16.70;6.18;;;9.30;95.60;;;;;;4956863;29;20040;-80
2022/02/18 08:22:40;;;;;;;7.90;4.20;;;9.40;96.30;;;;;;4961209;28;20039;-82
2022/02/18 08:25:09;;;;;;;13.40;5.55;;;9.40;96.90;;;;;;4961929;29;20035;-82
2022/02/18 08:27:35;;;;;;;12.65;5.32;;;9.50;97.80;;;;;;4957504;29;20039;-82
2022/02/18 08:30:03;;;;;;;12.02;5.72;;;9.50;98.50;;;;;;4959898;28;20028;-80
2022/02/18 08:32:30;;;;;;;13.48;5.18;;;9.60;99.20;;;;;;4957618;29;20040;-81
2022/02/18 08:34:58;;;;;;;15.65;4.88;;;9.60;99.60;;;;;;4958078;28;20031;-81
2022/02/18 08:37:24;;;;;;;9.02;4.70;;;9.60;99.90;;;;;;4955950;28;20365;-81
2022/02/18 08:39:51;;;;;;;13.25;5.78;;;9.60;99.90;;;;;;4957774;28;20046;-80
2022/02/18 08:42:17;;;;;;;13.80;8.68;;;9.60;99.90;;;;;;4956672;28;20465;-81
2022/02/18 08:44:44;;;;;;;11.73;5.20;;;9.70;99.90;;;;;;4957532;29;20149;-79
2022/02/18 08:47:11;;;;;;;10.55;4.22;;;9.70;99.90;;;;;;4957841;28;20507;-80
2022/02/18 08:49:40;;;;;;;13.52;6.32;;;9.70;99.90;;;;;;4957013;29;20039;-81
2022/02/18 08:52:07;;;;;;;6.97;4.68;;;9.80;99.90;;;;;;4957435;29;20032;-80
2022/02/18 08:54:34;;;;;;;8.20;3.92;;;9.90;99.90;;;;;;4956494;28;20039;-80
2022/02/18 08:57:07;;;;;;;11.38;4.10;;;10.00;99.90;;;;;;4956903;28;20035;-81
2022/02/18 08:59:33;;;;;;;7.18;3.50;;;10.00;99.90;;;;;;4962005;28;20035;-86
2022/02/18 09:02:01;;;;;;;8.27;5.15;;;10.10;99.90;;;;;;4969130;28;20054;-91
2022/02/18 09:04:27;;;;;;;9.52;3.40;;;10.10;99.90;;;;;;4962514;29;20035;-89
2022/02/18 09:06:54;;;;;;;9.48;3.65;;;10.20;99.90;;;;;;4961415;28;20059;-87
2022/02/18 09:09:20;;;;;;;6.45;4.32;;;10.10;99.90;;;;;;4962472;29;20358;-82
2022/02/18 09:11:46;;;;;;;8.23;4.75;;;10.10;99.90;;;;;;4956915;28;20043;-87
2022/02/18 09:14:16;;;;;;;11.95;3.60;;;10.00;99.90;;;;;;4957293;29;20040;-89
2022/02/18 09:16:45;;;;;;;11.63;3.28;;;10.10;99.90;;;;;;4955855;29;20047;-89
2022/02/18 09:19:13;;;;;;;8.50;3.78;;;10.20;99.90;;;;;;4956838;28;20047;-92
2022/02/18 09:21:39;;;;;;;5.88;3.08;;;10.30;99.90;;;;;;4956521;28;20031;-88
2022/02/18 09:24:05;;;;;;;5.95;3.33;;;10.30;99.90;;;;;;4958014;28;20038;-91
2022/02/18 09:26:32;;;;;;;7.90;3.65;;;10.30;99.70;;;;;;4955539;28;20461;-85
2022/02/18 09:28:59;;;;;;;9.52;2.35;;;10.40;99.60;;;;;;4955685;28;20043;-78
2022/02/18 09:31:25;;;;;;;4.65;2.38;;;10.40;99.60;;;;;;4954071;28;20043;-76
2022/02/18 09:33:53;;;;;;;5.72;2.30;;;10.40;99.80;;;;;;4956162;29;20455;-84
2022/02/18 09:36:19;;;;;;;9.82;2.88;;;10.40;99.90;;;;;;4955828;29;20519;-79
2022/02/18 09:38:46;;;;;;;6.32;2.95;;;10.40;99.90;;;;;;4955070;29;20031;-85
2022/02/18 09:41:12;;;;;;;9.05;3.30;;;10.40;99.90;;;;;;4955964;29;20047;-85
2022/02/18 09:43:41;;;;;;;12.63;3.42;;;10.40;99.90;;;;;;4954818;29;20036;-85
2022/02/18 09:46:09;;;;;;;8.77;3.45;;;10.40;99.90;;;;;;4955779;29;20453;-83
2022/02/18 09:48:36;;;;;;;8.20;2.95;;;10.50;99.90;;;;;;4954646;29;20514;-87
2022/02/18 09:51:02;;;;;;;14.25;3.13;;;10.50;99.90;;;;;;4955637;28;20030;-84
2022/02/18 09:53:29;;;;;;;5.90;2.15;;;10.50;99.90;;;;;;4953035;29;20043;-83
2022/02/18 09:55:56;;;;;;;4.20;2.42;;;10.60;99.90;;;;;;4955539;29;20075;-86
2022/02/18 09:58:23;;;;;;;4.55;2.40;;;10.60;99.90;;;;;;4953675;29;20031;-79
2022/02/18 10:00:50;;;;;;;8.05;2.63;;;10.70;99.90;;;;;;4951946;29;20039;-84
2022/02/18 10:03:19;;;;;;;5.03;2.22;;;10.80;99.90;;;;;;4957134;29;20031;-85
2022/02/18 10:05:46;;;;;;;8.88;2.38;;;10.90;99.30;;;;;;4954545;29;20035;-85
2022/02/18 10:08:15;;;;;;;3.90;2.10;;;11.00;98.90;;;;;;4955648;29;20043;-85
2022/02/18 10:10:57;;;;;;;5.78;2.53;;;11.00;98.20;;;;;;4954713;29;20043;-85
2022/02/18 10:13:31;;;;;;;4.38;2.20;;;11.10;98.10;;;;;;4954958;29;20039;-80
2022/02/18 10:15:59;;;;;;;7.07;4.07;;;11.10;97.90;;;;;;4955653;29;20058;-85
2022/02/18 10:18:26;;;;;;;7.80;3.25;;;11.10;97.80;;;;;;4953034;29;20503;-84
2022/02/18 10:20:54;;;;;;;7.18;3.28;;;11.10;97.60;;;;;;4954761;29;20426;-85
2022/02/18 10:23:22;;;;;;;5.13;2.72;;;11.10;97.40;;;;;;4945136;28;20047;-86
2022/02/18 10:25:50;;;;;;;5.57;2.30;;;11.10;97.30;;;;;;4938422;29;20051;-84
2022/02/18 10:28:18;;;;;;;4.43;1.95;;;11.20;97.10;;;;;;4935735;29;20044;-77
2022/02/18 10:30:46;;;;;;;4.80;1.98;;;11.30;96.70;;;;;;4949438;29;20232;-84
2022/02/18 10:33:20;;;;;;;4.88;1.90;;;11.40;96.30;;;;;;4950023;29;20047;-81
2022/02/18 10:35:49;;;;;;;4.35;1.92;;;11.50;96.10;;;;;;4935258;29;20047;-83
2022/02/18 10:38:16;;;;;;;4.15;1.98;;;11.50;95.60;;;;;;4935747;29;20518;-81
2022/02/18 10:40:48;;;;;;;2.67;1.92;;;11.60;95.60;;;;;;4934041;29;20541;-79
2022/02/18 10:43:25;;;;;;;3.90;2.00;;;11.70;95.30;;;;;;4934133;29;20539;-77
2022/02/18 10:45:59;;;;;;;3.60;1.77;;;11.70;94.80;;;;;;4960100;28;20062;-79
2022/02/18 10:48:48;;;;;;;2.92;1.65;;;11.70;94.80;;;;;;4945012;29;20131;-78
2022/02/18 10:51:21;;;;;;;10.75;1.73;;;11.80;94.70;;;;;;4933521;29;20048;-78
2022/02/18 10:53:49;;;;;;;4.25;1.70;;;11.90;94.70;;;;;;4934165;29;20039;-79
2022/02/18 10:56:18;;;;;;;6.72;1.92;;;12.00;94.70;;;;;;4935784;29;20035;-79
2022/02/18 10:58:50;;;;;;;4.63;1.58;;;12.10;94.30;;;;;;4935057;29;20055;-79
2022/02/18 11:01:24;;;;;;;2.67;1.17;;;12.30;93.70;;;;;;4934392;29;20370;-76
2022/02/18 11:03:59;;;;;;;3.50;1.50;;;12.40;93.40;;;;;;4950513;29;20035;-79
2022/02/18 11:06:37;;;;;;;2.80;1.13;;;12.50;93.20;;;;;;4934607;29;20035;-78
2022/02/18 11:09:04;;;;;;;1.88;1.00;;;12.60;93.00;;;;;;4950276;29;20067;-78
2022/02/18 11:11:45;;;;;;;4.30;1.30;;;12.60;92.90;;;;;;4934449;29;20497;-79
2022/02/18 11:14:18;;;;;;;2.28;1.00;;;12.70;93.00;;;;;;4935386;29;20031;-77
2022/02/18 11:16:52;;;;;;;3.42;1.35;;;12.80;92.50;;;;;;4935054;29;20035;-79
2022/02/18 11:19:25;;;;;;;4.30;1.50;;;12.90;92.10;;;;;;4935316;29;20039;-79
2022/02/18 11:21:52;;;;;;;2.53;1.15;;;13.00;92.00;;;;;;4935490;29;20046;-80
2022/02/18 11:24:24;;;;;;;2.63;1.20;;;13.30;91.40;;;;;;4935099;29;20044;-79
2022/02/18 11:26:52;;;;;;;1.83;1.05;;;13.50;90.30;;;;;;4935087;29;20040;-79
2022/02/18 11:29:19;;;;;;;3.17;1.83;;;13.70;89.80;;;;;;4935154;29;20080;-79
2022/02/18 11:31:52;;;;;;;2.67;1.20;;;14.00;88.40;;;;;;4933503;29;20346;-79
2022/02/18 11:34:43;;;;;;;2.03;1.52;;;14.20;86.50;;;;;;4934814;29;20047;-79
2022/02/18 11:37:42;;;;;;;9.95;1.80;;;14.30;86.30;;;;;;4933793;29;20043;-79
2022/02/18 11:40:15;;;;;;;4.10;1.33;;;14.30;85.50;;;;;;4949797;29;20374;-80
2022/02/18 11:43:03;;;;;;;5.13;1.08;;;14.20;85.20;;;;;;4934538;29;20050;-79
2022/02/18 11:45:30;;;;;;;2.15;1.35;;;14.00;85.40;;;;;;4934542;29;20054;-78
2022/02/18 11:47:56;;;;;;;5.22;1.92;;;13.70;86.60;;;;;;4935209;29;20039;-79
2022/02/18 11:50:29;;;;;;;10.20;1.23;;;13.60;87.20;;;;;;4949682;29;20032;-80
2022/02/18 11:52:55;;;;;;;3.05;1.20;;;13.60;87.50;;;;;;4934746;29;20032;-79
2022/02/18 11:55:39;;;;;;;0.95;0.57;;;13.60;87.00;;;;;;4935109;29;20027;-79
2022/02/18 11:58:12;;;;;;;3.90;0.95;;;13.80;86.50;;;;;;4934936;29;20385;-80
2022/02/18 12:00:39;;;;;;;3.38;0.98;;;13.80;87.10;;;;;;4934409;29;20035;-78
2022/02/18 12:03:16;;;;;;;7.18;0.80;;;13.80;87.00;;;;;;4936180;29;20043;-78
2022/02/18 12:06:05;;;;;;;1.08;0.70;;;13.70;87.00;;;;;;4934223;29;20036;-78
2022/02/18 12:08:34;;;;;;;1.83;0.90;;;13.80;89.00;;;;;;4941896;29;20035;-77
2022/02/18 12:11:15;;;;;;;1.17;0.73;;;13.60;89.40;;;;;;4955579;28;20492;-78
2022/02/18 12:13:56;;;;;;;1.80;0.90;;;13.60;89.50;;;;;;4954282;29;20237;-78
2022/02/18 12:16:24;;;;;;;1.17;0.70;;;13.60;89.10;;;;;;4952453;29;20294;-78
2022/02/18 12:19:09;;;;;;;3.05;0.90;;;13.70;88.30;;;;;;4953269;29;20039;-77
2022/02/18 12:21:55;;;;;;;3.70;1.08;;;13.60;88.10;;;;;;4951728;29;20039;-78
2022/02/18 12:24:38;;;;;;;7.30;0.98;;;13.70;87.50;;;;;;4953878;29;20106;-78
2022/02/18 12:27:26;;;;;;;0.90;0.60;;;13.70;86.60;;;;;;4951583;29;20027;-77
2022/02/18 12:29:54;;;;;;;5.05;1.13;;;13.80;86.30;;;;;;4933635;29;20040;-77
2022/02/18 12:32:21;;;;;;;4.80;1.42;;;13.90;84.90;;;;;;4955507;28;20051;-77
2022/02/18 12:35:04;;;;;;;1.90;0.70;;;14.00;85.60;;;;;;4946913;29;20031;-78
2022/02/18 12:37:31;;;;;;;1.63;0.68;;;14.00;85.00;;;;;;4952370;29;20495;-78
2022/02/18 12:40:00;;;;;;;4.53;1.13;;;14.00;84.40;;;;;;4953161;29;20043;-79
2022/02/18 12:42:29;;;;;;;2.25;1.13;;;13.90;85.00;;;;;;4953506;29;20032;-77
2022/02/18 12:44:58;;;;;;;2.22;0.80;;;14.00;84.30;;;;;;4968244;28;20039;-78
2022/02/18 12:47:26;;;;;;;0.90;0.73;;;14.00;82.20;;;;;;4956798;29;20070;-78
2022/02/18 12:49:59;;;;;;;1.33;0.98;;;14.10;82.00;;;;;;4971347;28;20047;-78
2022/02/18 12:52:30;;;;;;;6.95;1.55;;;14.10;81.50;;;;;;4957560;29;20372;-77
2022/02/18 12:54:58;;;;;;;;;;;14.10;79.90;;;;;;4957585;29;20035;-77